Sandy Lake Airport
CZSJ : now visible

Aeroporto :











RITROVATECI SU...

 
LOGIN :

Iscrizione | Disclaimer

   EN    FR    IT 

 









Sommario :    VFR   VFR Marginale   IFR   IFR Intensivo   IFR Molto Intensivo
Visibilità : 
Base nubi : 
>= 8 km
>= 3000ft
5 / 8 km
1000 / 3000 ft
1500m / 5 km
500 / 1000 ft
800 / 1500m
200 / 500 ft
< 800m
< 200 ft
Simboli :   Temporali  Nebbia  Neve Forte  Precipitazioni Forti  Vento > 20 kt






- Altitudine del aeroporto : 951 ft
- Codice IATA : ZSJ


CZSJ - Sandy Lake

ULTIMO METAR :
  • 180500Z AUTO 21005KT 130V280 9SM OVC076 15/04 A2981 RMK SLP102 DENSITY ALT 1400FT

METARs OBSOLETI :
  • 180400Z AUTO VRB02KT 9SM OVC100 15/05 A2980 RMK SLP100 DENSITY ALT 1300FT
  • 180300Z AUTO 25003KT 9SM BKN120 BKN140 15/03 A2978 RMK SLP092 DENSITY ALT 1400FT
  • 180200Z AUTO 26003KT 9SM CLR 16/03 A2975 RMK SLP083 DENSITY ALT 1500FT
  • 180100Z AUTO 26006KT 240V300 9SM CLR 17/00 A2976 RMK SLP086 DENSITY ALT 1700FT

Previsioni scadute.
FIR CZWG / America del Nord



MetMap, La meteo Aeronautica in un colpo d'occhio ! - Copyright ORBIFLY Dicembre 2007 - Disclaimer

ORBIFLY MET'MAP TEAM :

Programmazione e sviluppo : Alexandra Zaïnal
Concezione : Baudouin d'Aumeries
Supporto tecnico e logistico : Manuel Goepfert
Aiuto : Marc-Olivier Méhu
Aiuto per la traduzione : Arnaldo La Scala




FONTI E CREDITI :

   NOAA       Earth
Advisory